Time;durP1;ratioP1;P1;durP2;ratioP2;P2;SDS_P1;SDS_P2;PMS_P1;PMS_P2;Temp;Humidity;BMP_temperature;BMP_pressure;BME280_temperature;BME280_humidity;BME280_pressure;Samples;Min_cycle;Max_cycle;Signal;HPM_P1;HPM_P2
2021/12/15 00:00:42;;;;;;;81.38;32.00;;;9.10;99.90;;;;;;6188015;23;20020;-86
2021/12/15 00:03:08;;;;;;;86.53;31.65;;;9.00;99.90;;;;;;6187030;23;20024;-84
2021/12/15 00:05:35;;;;;;;78.15;30.67;;;9.10;99.90;;;;;;6187415;23;20034;-85
2021/12/15 00:08:06;;;;;;;89.15;30.67;;;9.10;99.90;;;;;;6187521;23;20329;-85
2021/12/15 00:10:33;;;;;;;71.57;29.73;;;9.10;99.90;;;;;;6187665;23;20048;-85
2021/12/15 00:13:23;;;;;;;;;;;9.10;99.90;;;;;;6192469;23;20032;-85
2021/12/15 00:15:49;;;;;;;77.38;27.45;;;9.10;99.90;;;;;;6188993;23;19915;-85
2021/12/15 00:18:18;;;;;;;67.57;28.00;;;9.10;99.90;;;;;;6187139;23;20048;-85
2021/12/15 00:20:44;;;;;;;72.65;27.70;;;9.10;99.90;;;;;;6213918;23;20445;-85
2021/12/15 00:23:10;;;;;;;75.32;30.08;;;9.10;99.90;;;;;;6219605;23;20100;-85
2021/12/15 00:25:42;;;;;;;77.72;29.40;;;9.10;99.90;;;;;;6187866;23;20020;-85
2021/12/15 00:28:09;;;;;;;76.10;27.58;;;9.00;99.90;;;;;;6187604;23;20024;-85
2021/12/15 00:30:39;;;;;;;82.68;29.33;;;9.10;99.90;;;;;;6190061;23;20135;-85
2021/12/15 00:33:06;;;;;;;79.88;31.83;;;9.10;99.90;;;;;;6189362;23;20079;-85
2021/12/15 00:35:33;;;;;;;81.60;29.48;;;9.10;99.90;;;;;;6189527;23;20028;-85
2021/12/15 00:37:59;;;;;;;93.68;30.92;;;9.10;99.90;;;;;;6215685;23;20020;-85
2021/12/15 00:40:25;;;;;;;84.93;30.02;;;9.10;99.90;;;;;;6216421;23;20059;-85
2021/12/15 00:42:53;;;;;;;85.43;31.25;;;9.10;99.90;;;;;;6214842;23;20440;-85
2021/12/15 00:45:20;;;;;;;72.95;30.35;;;9.10;99.90;;;;;;6189423;23;20020;-85
2021/12/15 00:47:46;;;;;;;76.25;30.02;;;9.10;99.90;;;;;;6215687;23;20041;-85
2021/12/15 00:50:15;;;;;;;79.85;31.02;;;9.10;99.90;;;;;;6164497;23;20053;-86
2021/12/15 00:52:42;;;;;;;85.45;30.88;;;9.10;99.90;;;;;;6164801;23;20535;-85
2021/12/15 00:55:13;;;;;;;75.43;29.60;;;9.10;99.90;;;;;;6215162;23;20028;-86
2021/12/15 00:57:40;;;;;;;77.90;29.80;;;9.10;99.90;;;;;;6219483;23;20020;-86
2021/12/15 01:00:09;;;;;;;83.68;32.53;;;9.10;99.90;;;;;;6141651;23;20055;-86
2021/12/15 01:02:35;;;;;;;85.22;31.40;;;9.10;99.90;;;;;;6189830;23;20543;-86
2021/12/15 01:05:04;;;;;;;74.72;30.80;;;9.10;99.90;;;;;;6216415;23;20096;-86
2021/12/15 01:07:31;;;;;;;73.28;28.50;;;9.20;99.90;;;;;;6189029;23;20079;-85
2021/12/15 01:09:59;;;;;;;71.53;29.55;;;9.20;99.90;;;;;;6214231;23;20020;-86
2021/12/15 01:20:38;;;;;;;72.45;28.50;;;9.20;99.90;;;;;;6188582;23;20147;-86
2021/12/15 01:23:08;;;;;;;75.13;28.45;;;9.20;99.90;;;;;;6188814;23;20021;-86
2021/12/15 01:25:40;;;;;;;69.10;28.77;;;9.20;99.90;;;;;;6189040;23;20079;-86
2021/12/15 01:28:08;;;;;;;69.75;28.10;;;9.20;99.90;;;;;;6214043;23;20024;-86
2021/12/15 01:30:38;;;;;;;69.47;28.27;;;9.20;99.90;;;;;;6188735;23;20020;-86
2021/12/15 01:33:05;;;;;;;62.28;27.77;;;9.20;99.90;;;;;;6163926;23;20056;-86
2021/12/15 01:35:33;;;;;;;80.18;27.45;;;9.20;99.90;;;;;;6189170;23;20021;-86
2021/12/15 01:37:59;;;;;;;67.53;27.73;;;9.20;99.90;;;;;;6218073;22;20029;-85
2021/12/15 01:40:34;;;;;;;67.47;25.80;;;9.20;99.90;;;;;;6191277;23;20083;-86
2021/12/15 01:43:04;;;;;;;68.28;26.23;;;9.20;99.90;;;;;;6213954;23;20035;-86
2021/12/15 01:48:16;;;;;;;60.92;25.30;;;9.30;99.90;;;;;;6189746;23;20077;-85
2021/12/15 01:50:43;;;;;;;66.93;26.70;;;9.30;99.90;;;;;;6189542;23;20032;-85
2021/12/15 01:53:09;;;;;;;69.68;25.65;;;9.30;99.90;;;;;;6189314;23;20025;-85
2021/12/15 01:55:39;;;;;;;61.70;25.92;;;9.20;99.90;;;;;;6188702;23;20043;-86
2021/12/15 01:58:06;;;;;;;66.03;24.55;;;9.20;99.90;;;;;;6188700;23;20087;-86
2021/12/15 02:01:05;;;;;;;69.15;26.73;;;9.30;99.90;;;;;;6213772;23;20464;-86
2021/12/15 02:03:31;;;;;;;63.83;24.73;;;9.30;99.90;;;;;;6177279;23;20024;-86
2021/12/15 02:05:58;;;;;;;66.10;24.67;;;9.30;99.90;;;;;;6215367;23;20027;-85
2021/12/15 02:08:24;;;;;;;67.07;25.90;;;9.30;99.90;;;;;;6188804;23;20024;-85
2021/12/15 02:10:51;;;;;;;69.95;27.20;;;9.30;99.90;;;;;;6214259;23;20051;-86
2021/12/15 02:13:19;;;;;;;73.00;27.35;;;9.30;99.90;;;;;;6192181;23;20103;-87
2021/12/15 02:15:52;;;;;;;69.93;27.70;;;9.30;99.90;;;;;;6189501;23;20043;-86
2021/12/15 02:18:24;;;;;;;77.90;28.90;;;9.30;99.90;;;;;;6215547;23;20128;-85
2021/12/15 02:20:57;;;;;;;71.22;27.58;;;9.30;99.90;;;;;;6188867;23;20020;-85
2021/12/15 02:23:37;;;;;;;77.93;28.63;;;9.30;99.90;;;;;;6163901;23;20035;-85
2021/12/15 02:26:09;;;;;;;77.32;27.42;;;9.30;99.90;;;;;;6215284;23;20144;-86
2021/12/15 02:28:38;;;;;;;78.40;29.27;;;9.30;99.90;;;;;;6188472;23;20035;-87
2021/12/15 02:31:20;;;;;;;77.32;31.20;;;9.30;99.90;;;;;;6188213;23;20052;-86
2021/12/15 02:34:03;;;;;;;81.07;30.30;;;9.30;99.90;;;;;;6213822;23;20032;-86
2021/12/15 02:39:14;;;;;;;72.35;27.10;;;9.30;99.90;;;;;;6188653;23;20528;-84
2021/12/15 02:41:41;;;;;;;75.80;29.60;;;9.30;99.90;;;;;;6213821;23;20024;-86
2021/12/15 02:44:12;;;;;;;85.25;31.33;;;9.30;99.90;;;;;;6188408;23;20020;-86
2021/12/15 02:46:47;;;;;;;79.88;31.40;;;9.30;99.90;;;;;;6188679;23;20021;-85
2021/12/15 02:49:19;;;;;;;74.38;30.52;;;9.30;99.90;;;;;;6213403;23;20032;-85
2021/12/15 02:51:54;;;;;;;87.43;30.83;;;9.30;99.90;;;;;;6189633;23;20036;-85
2021/12/15 02:54:24;;;;;;;76.38;30.95;;;9.30;99.90;;;;;;6217278;23;20020;-85
2021/12/15 02:56:53;;;;;;;88.28;32.10;;;9.30;99.90;;;;;;6219391;23;20024;-85
2021/12/15 02:59:30;;;;;;;76.38;30.98;;;9.30;99.90;;;;;;6188699;23;20079;-85
2021/12/15 03:02:06;;;;;;;74.97;30.55;;;9.30;99.90;;;;;;6188170;23;20025;-86
2021/12/15 03:07:25;;;;;;;80.28;32.42;;;9.30;99.90;;;;;;6188367;23;20024;-86
2021/12/15 03:15:34;;;;;;;86.30;31.95;;;9.30;99.90;;;;;;6187884;23;20107;-85
2021/12/15 03:18:00;;;;;;;86.13;33.53;;;9.30;99.90;;;;;;6187859;23;20092;-86
2021/12/15 03:20:48;;;;;;;79.30;32.55;;;9.30;99.90;;;;;;6188283;23;20067;-86
2021/12/15 03:23:25;;;;;;;85.72;32.03;;;9.20;99.90;;;;;;6215009;23;20016;-86
2021/12/15 03:25:52;;;;;;;84.45;33.28;;;9.20;99.90;;;;;;6188537;23;20115;-85
2021/12/15 03:37:07;;;;;;;77.18;33.45;;;9.20;99.90;;;;;;6191819;23;20031;-85
2021/12/15 03:39:39;;;;;;;;;;;9.20;99.90;;;;;;6192448;23;20055;-85
2021/12/15 03:42:08;;;;;;;78.25;31.38;;;9.20;99.90;;;;;;6163865;23;19990;-85
2021/12/15 03:44:42;;;;;;;80.70;33.10;;;9.20;99.90;;;;;;6187977;23;20021;-85
2021/12/15 03:47:13;;;;;;;78.50;32.22;;;9.20;99.90;;;;;;6187707;23;20031;-85
2021/12/15 03:49:40;;;;;;;83.32;34.60;;;9.20;99.90;;;;;;6213770;23;20023;-85
2021/12/15 03:52:10;;;;;;;78.65;33.00;;;9.20;99.90;;;;;;6187745;23;20099;-85
2021/12/15 03:54:38;;;;;;;81.18;35.47;;;9.20;99.90;;;;;;6188553;23;20032;-85
2021/12/15 03:57:04;;;;;;;94.43;36.15;;;9.20;99.90;;;;;;6162812;23;20020;-85
2021/12/15 03:59:34;;;;;;;89.72;33.65;;;9.20;99.90;;;;;;6187944;23;20032;-85
2021/12/15 04:02:05;;;;;;;78.80;33.70;;;9.20;99.90;;;;;;6213554;23;20086;-85
2021/12/15 04:04:31;;;;;;;86.80;35.33;;;9.20;99.90;;;;;;6216648;23;20008;-85
2021/12/15 04:06:57;;;;;;;96.90;36.45;;;9.20;99.90;;;;;;6190204;23;20024;-85
2021/12/15 04:09:23;;;;;;;84.43;34.72;;;9.20;99.90;;;;;;6189862;23;20048;-86
2021/12/15 04:11:52;;;;;;;86.78;34.20;;;9.20;99.90;;;;;;6165239;23;20028;-86
2021/12/15 04:14:22;;;;;;;87.13;34.47;;;9.20;99.90;;;;;;6189669;23;20020;-85
2021/12/15 04:17:03;;;;;;;84.05;35.33;;;9.10;99.90;;;;;;6192149;23;20032;-85
2021/12/15 04:19:30;;;;;;;95.97;35.15;;;9.10;99.90;;;;;;6191113;23;20016;-86
2021/12/15 04:21:57;;;;;;;77.75;35.90;;;9.10;99.90;;;;;;6189591;23;20027;-84
2021/12/15 04:24:26;;;;;;;86.88;36.17;;;9.10;99.90;;;;;;6190394;23;20021;-86
2021/12/15 04:26:55;;;;;;;89.05;33.08;;;9.10;99.90;;;;;;6189320;23;20107;-86
2021/12/15 04:29:27;;;;;;;88.95;33.80;;;9.10;99.90;;;;;;6214743;23;20023;-86
2021/12/15 04:32:20;;;;;;;86.07;34.00;;;9.10;99.90;;;;;;6189360;23;20095;-86
2021/12/15 04:34:46;;;;;;;77.78;33.92;;;9.10;99.90;;;;;;6216135;23;20029;-86
2021/12/15 04:37:12;;;;;;;83.03;31.50;;;9.10;99.90;;;;;;6214277;22;20082;-86
2021/12/15 04:39:37;;;;;;;82.90;32.75;;;9.10;99.90;;;;;;6189287;23;20564;-86
2021/12/15 04:42:05;;;;;;;84.28;31.35;;;9.10;99.90;;;;;;6216953;23;20016;-86
2021/12/15 04:44:36;;;;;;;82.72;32.15;;;9.10;99.90;;;;;;6191536;23;20482;-87
2021/12/15 04:47:10;;;;;;;69.22;30.77;;;9.10;99.90;;;;;;6193752;23;20056;-86
2021/12/15 04:49:42;;;;;;;86.45;32.88;;;9.10;99.90;;;;;;6168158;23;20032;-86
2021/12/15 04:52:11;;;;;;;83.95;33.83;;;9.10;99.90;;;;;;6189264;23;20064;-86
2021/12/15 04:54:37;;;;;;;95.57;33.20;;;9.10;99.90;;;;;;6190378;23;20063;-86
2021/12/15 04:57:04;;;;;;;87.38;33.42;;;9.00;99.90;;;;;;6215150;23;20028;-86
2021/12/15 04:59:30;;;;;;;79.57;32.05;;;9.00;99.90;;;;;;6214747;23;20032;-86
2021/12/15 05:02:05;;;;;;;85.07;34.22;;;9.00;99.90;;;;;;6188640;23;20105;-86
2021/12/15 05:04:31;;;;;;;79.00;33.85;;;9.00;99.90;;;;;;6215964;23;20016;-86
2021/12/15 05:06:57;;;;;;;87.43;31.55;;;9.00;99.90;;;;;;6216086;23;20035;-86
2021/12/15 05:09:25;;;;;;;77.22;33.40;;;9.00;99.90;;;;;;6214390;23;20028;-85
2021/12/15 05:11:53;;;;;;;75.53;31.25;;;9.10;99.90;;;;;;6189174;23;20024;-86
2021/12/15 05:14:21;;;;;;;84.63;32.35;;;9.10;99.90;;;;;;6189011;23;20348;-86
2021/12/15 05:16:47;;;;;;;79.82;31.40;;;9.00;99.90;;;;;;6188515;23;20032;-86
2021/12/15 05:19:14;;;;;;;84.22;32.88;;;9.10;99.90;;;;;;6189215;23;20024;-86
2021/12/15 05:21:40;;;;;;;76.40;29.65;;;9.10;99.90;;;;;;6215070;23;20088;-86
2021/12/15 05:24:23;;;;;;;75.55;31.52;;;9.10;99.90;;;;;;6219873;23;20352;-84
2021/12/15 05:26:50;;;;;;;70.40;30.88;;;9.00;99.90;;;;;;6220238;23;20025;-86
2021/12/15 05:29:18;;;;;;;72.82;30.40;;;9.00;99.90;;;;;;6190792;23;20027;-87
2021/12/15 05:31:44;;;;;;;73.15;30.00;;;9.00;99.90;;;;;;6190172;23;20024;-85
2021/12/15 05:34:10;;;;;;;69.03;28.85;;;9.10;99.90;;;;;;6189208;23;20472;-86
2021/12/15 05:36:36;;;;;;;69.60;29.70;;;9.00;99.90;;;;;;6164127;23;20104;-84
2021/12/15 05:39:06;;;;;;;74.82;30.30;;;9.00;99.90;;;;;;6189036;23;20028;-84
2021/12/15 05:41:33;;;;;;;74.82;30.42;;;9.00;99.90;;;;;;6163943;23;20020;-85
2021/12/15 05:43:59;;;;;;;79.07;30.83;;;9.00;99.90;;;;;;6189008;23;20083;-85
2021/12/15 05:46:27;;;;;;;77.65;32.45;;;9.00;99.90;;;;;;6188716;23;20029;-85
2021/12/15 05:48:58;;;;;;;82.18;32.83;;;9.00;99.90;;;;;;6215466;23;20062;-86
2021/12/15 05:51:23;;;;;;;85.75;33.47;;;9.00;99.90;;;;;;6213718;23;20028;-85
2021/12/15 05:53:52;;;;;;;86.40;33.97;;;9.00;99.90;;;;;;6188818;23;20326;-85
2021/12/15 05:56:18;;;;;;;72.55;31.33;;;9.00;99.90;;;;;;6188352;23;20017;-85
2021/12/15 05:58:47;;;;;;;82.60;34.97;;;9.00;99.90;;;;;;6215936;23;20025;-86
2021/12/15 06:01:13;;;;;;;82.22;31.35;;;8.90;99.90;;;;;;6190794;23;20017;-85
2021/12/15 06:03:39;;;;;;;77.97;31.88;;;8.90;99.90;;;;;;6194458;23;20016;-85
2021/12/15 06:06:05;;;;;;;79.82;31.20;;;9.00;99.90;;;;;;6190569;23;20024;-84
2021/12/15 06:08:31;;;;;;;85.93;32.97;;;8.90;99.90;;;;;;6190501;23;20487;-84
2021/12/15 06:10:58;;;;;;;70.47;30.92;;;8.90;99.90;;;;;;6213761;23;20024;-85
2021/12/15 06:13:26;;;;;;;87.10;35.95;;;8.90;99.90;;;;;;6213429;23;20020;-85
2021/12/15 06:15:53;;;;;;;74.78;31.95;;;8.90;99.90;;;;;;6188608;23;20020;-86
2021/12/15 06:18:21;;;;;;;81.95;32.72;;;8.90;99.90;;;;;;6188378;23;20023;-85
2021/12/15 06:20:50;;;;;;;83.85;31.75;;;8.90;99.90;;;;;;6188764;23;20337;-85
2021/12/15 06:23:38;;;;;;;82.57;30.73;;;8.90;99.90;;;;;;6215080;23;20018;-85
2021/12/15 06:26:06;;;;;;;77.13;29.63;;;9.00;99.90;;;;;;6188233;23;20027;-85
2021/12/15 06:28:33;;;;;;;77.47;30.80;;;9.00;99.90;;;;;;6187734;23;20345;-85
2021/12/15 06:31:00;;;;;;;78.97;30.75;;;9.00;99.90;;;;;;6161560;23;20412;-85
2021/12/15 06:33:28;;;;;;;75.97;29.92;;;9.00;99.90;;;;;;6213722;23;20021;-85
2021/12/15 06:35:57;;;;;;;77.15;31.17;;;9.00;99.90;;;;;;6189774;23;20066;-84
2021/12/15 06:38:34;;;;;;;79.47;29.42;;;9.00;99.90;;;;;;6188008;23;20044;-86
2021/12/15 06:41:00;;;;;;;79.68;29.73;;;9.00;99.90;;;;;;6212046;23;20023;-85
2021/12/15 06:43:32;;;;;;;83.82;29.40;;;9.00;99.90;;;;;;6192266;23;20056;-85
2021/12/15 06:59:38;;;;;;;75.05;28.83;;;9.10;99.90;;;;;;6213449;23;20029;-86
2021/12/15 07:02:10;;;;;;;69.15;27.63;;;9.10;99.90;;;;;;6187746;23;20035;-85
2021/12/15 07:04:36;;;;;;;66.30;25.45;;;9.10;99.90;;;;;;6187757;23;20111;-86
2021/12/15 07:07:04;;;;;;;65.00;26.38;;;9.10;99.90;;;;;;6187913;23;20048;-86
2021/12/15 07:09:31;;;;;;;65.35;27.02;;;9.10;99.90;;;;;;6188206;23;20482;-85
2021/12/15 07:11:57;;;;;;;66.60;26.75;;;9.20;99.90;;;;;;6188126;23;20024;-85
2021/12/15 07:14:23;;;;;;;63.25;27.05;;;9.20;99.90;;;;;;6213720;23;20067;-85
2021/12/15 07:16:51;;;;;;;79.15;30.45;;;9.20;99.90;;;;;;6215038;23;20024;-85
2021/12/15 07:19:34;;;;;;;70.70;27.52;;;9.20;99.90;;;;;;6215527;23;20024;-85
2021/12/15 07:22:15;;;;;;;61.28;25.73;;;9.20;99.90;;;;;;6188092;23;20399;-85
2021/12/15 07:24:44;;;;;;;62.65;26.40;;;9.20;99.90;;;;;;6187697;23;20024;-85
2021/12/15 07:27:16;;;;;;;59.13;24.85;;;9.20;99.90;;;;;;6188602;23;20031;-88
2021/12/15 07:29:41;;;;;;;49.33;21.88;;;9.30;99.90;;;;;;6191795;23;20048;-85
2021/12/15 07:32:07;;;;;;;52.38;23.30;;;9.30;99.90;;;;;;6193435;23;20365;-86
2021/12/15 07:34:33;;;;;;;51.03;22.33;;;9.30;99.90;;;;;;6215020;23;20078;-86
2021/12/15 07:36:59;;;;;;;47.53;21.33;;;9.30;99.90;;;;;;6161795;23;20096;-87
2021/12/15 07:39:28;;;;;;;49.30;21.35;;;9.30;99.90;;;;;;6214577;23;20021;-85
2021/12/15 07:42:04;;;;;;;57.13;21.98;;;9.30;99.90;;;;;;6212743;23;20028;-86
2021/12/15 07:44:31;;;;;;;49.53;22.38;;;9.30;99.90;;;;;;6188171;23;20047;-86
2021/12/15 07:47:00;;;;;;;50.60;21.98;;;9.30;99.90;;;;;;6213226;23;20060;-86
2021/12/15 07:49:28;;;;;;;52.67;21.60;;;9.30;99.90;;;;;;6187851;23;20473;-86
2021/12/15 07:52:00;;;;;;;53.38;21.08;;;9.30;99.90;;;;;;6212733;23;20024;-87
2021/12/15 07:54:33;;;;;;;43.20;20.45;;;9.40;99.90;;;;;;6162712;23;20047;-86
2021/12/15 07:57:01;;;;;;;39.78;18.95;;;9.40;99.90;;;;;;6187361;23;20020;-86
2021/12/15 07:59:28;;;;;;;50.13;20.23;;;9.40;99.90;;;;;;6187459;23;20024;-86
2021/12/15 08:02:13;;;;;;;;;;;9.40;99.90;;;;;;6214688;23;20143;-86
2021/12/15 08:04:39;;;;;;;37.47;18.45;;;9.40;99.90;;;;;;6187802;23;19916;-85
2021/12/15 08:07:08;;;;;;;44.72;18.27;;;9.40;99.90;;;;;;6214891;23;20480;-87
2021/12/15 08:09:35;;;;;;;37.83;17.67;;;9.40;99.90;;;;;;6188140;23;20353;-84
2021/12/15 08:12:01;;;;;;;38.25;16.23;;;9.40;99.90;;;;;;6186805;23;20025;-86
2021/12/15 08:14:26;;;;;;;42.03;16.95;;;9.40;99.90;;;;;;6187813;23;20055;-86
2021/12/15 08:16:54;;;;;;;41.25;16.00;;;9.40;99.90;;;;;;6214727;23;20029;-86
2021/12/15 08:19:20;;;;;;;31.00;13.70;;;9.40;99.90;;;;;;6187334;23;20119;-88
2021/12/15 08:21:46;;;;;;;33.08;14.68;;;9.40;99.90;;;;;;6186051;23;20106;-87
2021/12/15 08:24:15;;;;;;;26.58;12.75;;;9.40;99.90;;;;;;6186552;23;20032;-84
2021/12/15 08:26:41;;;;;;;28.70;12.88;;;9.40;99.90;;;;;;6189453;23;20036;-86
2021/12/15 08:29:07;;;;;;;31.23;12.40;;;9.30;99.90;;;;;;6215246;23;20464;-84
2021/12/15 08:31:33;;;;;;;28.48;11.68;;;9.30;99.90;;;;;;6162395;23;20055;-85
2021/12/15 08:34:02;;;;;;;21.55;10.30;;;9.30;99.90;;;;;;6187584;23;20083;-85
2021/12/15 08:36:29;;;;;;;28.63;11.77;;;9.20;99.90;;;;;;6214548;23;20009;-86
2021/12/15 08:38:56;;;;;;;27.38;10.55;;;9.20;99.90;;;;;;6214424;23;20033;-86
2021/12/15 08:41:25;;;;;;;21.20;9.73;;;9.20;99.90;;;;;;6188464;23;20051;-86
2021/12/15 08:43:52;;;;;;;21.20;9.95;;;9.20;99.90;;;;;;6188532;23;20029;-86
2021/12/15 08:46:20;;;;;;;25.15;9.23;;;9.10;99.90;;;;;;6187442;23;20025;-86
2021/12/15 08:48:50;;;;;;;25.92;9.38;;;9.10;99.90;;;;;;6214675;23;20090;-84
2021/12/15 08:51:18;;;;;;;19.08;8.60;;;9.10;99.90;;;;;;6189038;23;20024;-86
2021/12/15 08:53:45;;;;;;;24.08;8.32;;;9.10;99.90;;;;;;6188065;23;20075;-85
2021/12/15 08:56:12;;;;;;;31.25;11.15;;;9.10;99.90;;;;;;6189552;23;20032;-86
2021/12/15 08:58:39;;;;;;;23.75;9.10;;;9.10;99.90;;;;;;6215817;23;20033;-86
2021/12/15 09:01:08;;;;;;;16.70;8.32;;;9.10;99.90;;;;;;6188722;23;20076;-87
2021/12/15 09:03:35;;;;;;;16.17;8.13;;;9.10;99.90;;;;;;6164592;23;20094;-86
2021/12/15 09:06:04;;;;;;;20.65;8.18;;;9.20;99.90;;;;;;6216163;23;20348;-87
2021/12/15 09:08:37;;;;;;;18.90;7.25;;;9.20;99.90;;;;;;6189081;23;20021;-86
2021/12/15 09:11:15;;;;;;;27.95;8.07;;;9.20;99.90;;;;;;6188988;23;20060;-87
2021/12/15 09:13:44;;;;;;;22.60;7.68;;;9.30;99.90;;;;;;6191700;23;20024;-87
2021/12/15 09:16:12;;;;;;;23.05;8.10;;;9.30;99.90;;;;;;6219138;23;20027;-85
2021/12/15 09:18:41;;;;;;;22.42;8.07;;;9.20;99.90;;;;;;6165822;23;20027;-85
2021/12/15 09:21:19;;;;;;;20.08;8.32;;;9.20;99.90;;;;;;6189239;23;20029;-85
2021/12/15 09:23:47;;;;;;;26.85;9.07;;;9.10;99.90;;;;;;6216812;23;20039;-86
2021/12/15 09:26:13;;;;;;;18.27;9.23;;;9.20;99.90;;;;;;6189532;23;20527;-86
2021/12/15 09:28:55;;;;;;;20.33;9.48;;;9.20;99.90;;;;;;6213550;23;20020;-86
2021/12/15 09:31:20;;;;;;;25.80;11.98;;;9.10;99.90;;;;;;6189333;23;20017;-87
2021/12/15 09:33:56;;;;;;;23.95;10.07;;;9.10;99.90;;;;;;6189217;23;20029;-86
2021/12/15 09:36:23;;;;;;;30.63;10.77;;;9.20;99.90;;;;;;6214657;23;20021;-86
2021/12/15 09:39:08;;;;;;;24.38;9.95;;;9.20;99.90;;;;;;6216009;23;20364;-86
2021/12/15 09:41:35;;;;;;;27.67;9.98;;;9.20;99.90;;;;;;6215917;23;20355;-87
2021/12/15 09:44:07;;;;;;;24.75;10.75;;;9.20;99.90;;;;;;6189511;23;20021;-86
2021/12/15 09:47:02;;;;;;;30.30;11.30;;;9.20;99.90;;;;;;6188909;23;20082;-85
2021/12/15 10:03:25;;;;;;;29.10;12.65;;;9.20;99.90;;;;;;6218420;23;20079;-86
2021/12/15 10:19:20;;;;;;;25.95;10.85;;;9.30;99.90;;;;;;6215970;23;20020;-86
2021/12/15 10:22:11;;;;;;;24.38;11.27;;;9.30;99.90;;;;;;6188459;23;20035;-86
2021/12/15 10:25:08;;;;;;;24.40;9.43;;;9.40;99.90;;;;;;6188404;23;20063;-87
2021/12/15 10:27:51;;;;;;;18.25;6.88;;;9.40;99.90;;;;;;6163396;23;20464;-86
2021/12/15 10:30:30;;;;;;;14.77;6.13;;;9.50;99.90;;;;;;6187105;23;20456;-85
2021/12/15 10:33:02;;;;;;;14.68;5.18;;;9.70;99.90;;;;;;6187968;23;20856;-84
2021/12/15 10:35:58;;;;;;;17.20;4.80;;;9.90;99.90;;;;;;6187949;23;20024;-85
2021/12/15 10:38:48;;;;;;;9.55;3.80;;;10.00;99.90;;;;;;6182258;23;20020;-84
2021/12/15 10:41:23;;;;;;;11.75;3.80;;;10.20;99.90;;;;;;6189029;23;20024;-85
2021/12/15 10:43:55;;;;;;;8.15;3.80;;;10.20;99.90;;;;;;6187421;23;20082;-86
2021/12/15 10:46:32;;;;;;;9.30;2.22;;;10.20;99.90;;;;;;6188542;23;20051;-86
2021/12/15 10:49:09;;;;;;;8.90;3.20;;;10.10;99.90;;;;;;6188145;23;20025;-86
2021/12/15 10:52:00;;;;;;;7.13;3.15;;;9.90;99.90;;;;;;6188086;23;20024;-86
2021/12/15 10:54:31;;;;;;;12.07;3.38;;;9.80;99.90;;;;;;6188131;23;20380;-86
2021/12/15 10:57:03;;;;;;;8.52;2.92;;;9.70;99.90;;;;;;6215031;23;20023;-87
2021/12/15 10:59:35;;;;;;;9.35;2.58;;;9.70;99.90;;;;;;6188258;23;20029;-86
2021/12/15 11:02:05;;;;;;;9.27;2.67;;;9.70;99.90;;;;;;6187957;23;20482;-87
2021/12/15 11:04:49;;;;;;;8.17;2.77;;;9.60;99.90;;;;;;6187659;23;20075;-87
2021/12/15 11:07:33;;;;;;;6.95;2.50;;;9.60;99.90;;;;;;6214614;23;20402;-86
2021/12/15 11:10:30;;;;;;;11.10;2.92;;;9.60;99.90;;;;;;6188464;23;20020;-86
2021/12/15 11:13:05;;;;;;;14.77;3.92;;;9.50;99.90;;;;;;6126994;23;20030;-86
2021/12/15 11:15:51;;;;;;;8.43;2.97;;;9.50;99.90;;;;;;6105077;23;20032;-87
2021/12/15 11:18:28;;;;;;;8.82;2.88;;;9.50;99.90;;;;;;6127289;23;20453;-87
2021/12/15 11:21:08;;;;;;;11.40;3.17;;;9.50;99.90;;;;;;6127215;23;20508;-87
2021/12/15 11:23:34;;;;;;;16.25;3.22;;;9.50;99.90;;;;;;6127265;23;20028;-86
2021/12/15 11:26:06;;;;;;;8.45;2.92;;;9.50;99.90;;;;;;6102946;23;20029;-87
2021/12/15 11:28:45;;;;;;;9.40;3.20;;;9.50;99.90;;;;;;6130350;23;20028;-87
2021/12/15 11:31:31;;;;;;;13.25;2.90;;;9.60;99.90;;;;;;6127563;23;20025;-86
2021/12/15 11:34:00;;;;;;;13.43;2.90;;;9.50;99.90;;;;;;6120173;23;20025;-85
2021/12/15 11:36:32;;;;;;;8.25;2.80;;;9.50;99.90;;;;;;6126686;23;20088;-87
2021/12/15 11:39:01;;;;;;;12.88;3.63;;;9.60;99.90;;;;;;6127069;23;20036;-88
2021/12/15 11:41:37;;;;;;;10.98;2.45;;;10.10;99.90;;;;;;6127649;23;20026;-87
2021/12/15 11:44:09;;;;;;;11.32;2.50;;;10.50;99.90;;;;;;6105698;23;20052;-87
2021/12/15 11:46:48;;;;;;;11.15;2.70;;;10.40;99.90;;;;;;6127252;23;20021;-86
2021/12/15 11:49:40;;;;;;;7.40;2.28;;;10.30;99.90;;;;;;6131904;23;20028;-88
2021/12/15 11:52:07;;;;;;;11.55;3.20;;;10.40;99.90;;;;;;6188091;23;20064;-87
2021/12/15 11:54:39;;;;;;;12.15;2.53;;;10.90;99.90;;;;;;6188025;23;20084;-87
2021/12/15 11:57:27;;;;;;;11.23;3.42;;;11.30;99.90;;;;;;6212315;23;20032;-88
2021/12/15 12:00:07;;;;;;;9.75;2.40;;;11.60;99.90;;;;;;6214657;23;20016;-87
2021/12/15 12:02:54;;;;;;;12.35;2.63;;;11.60;99.90;;;;;;6187802;23;20126;-85
2021/12/15 12:05:41;;;;;;;12.85;2.35;;;11.60;99.90;;;;;;6187876;23;20020;-85
2021/12/15 12:08:11;;;;;;;8.07;2.17;;;11.60;99.90;;;;;;6187742;23;20108;-86
2021/12/15 12:10:46;;;;;;;10.55;2.30;;;12.00;99.90;;;;;;6214609;23;20464;-86
2021/12/15 12:13:15;;;;;;;;;;;12.20;99.90;;;;;;6190274;23;20333;-85
2021/12/15 12:15:47;;;;;;;11.05;1.90;;;12.60;99.90;;;;;;6192760;23;19962;-85
2021/12/15 12:18:23;;;;;;;8.57;3.03;;;13.10;99.90;;;;;;6189645;23;20470;-87
2021/12/15 12:21:03;;;;;;;6.28;2.13;;;13.70;99.90;;;;;;6187691;23;20048;-87
2021/12/15 12:23:33;;;;;;;7.00;1.65;;;13.90;99.90;;;;;;6214395;23;20017;-86
2021/12/15 12:26:04;;;;;;;6.90;1.73;;;14.40;99.90;;;;;;6188856;23;20056;-87
2021/12/15 12:28:36;;;;;;;6.63;1.75;;;14.50;99.90;;;;;;6215007;23;20009;-87
2021/12/15 12:31:09;;;;;;;7.30;1.58;;;14.70;99.90;;;;;;6184417;23;20479;-88
2021/12/15 12:33:37;;;;;;;4.03;1.20;;;14.70;99.90;;;;;;6188537;23;20100;-86
2021/12/15 12:36:13;;;;;;;9.35;1.65;;;14.60;99.90;;;;;;6214901;23;20052;-87
2021/12/15 12:38:46;;;;;;;5.70;1.50;;;14.80;99.90;;;;;;6190638;22;20196;-87
2021/12/15 12:41:24;;;;;;;5.00;1.10;;;14.80;99.50;;;;;;6216467;23;20107;-88
2021/12/15 12:43:55;;;;;;;5.35;1.92;;;14.80;99.90;;;;;;6188729;23;20032;-87
2021/12/15 12:46:29;;;;;;;4.82;0.98;;;14.90;98.30;;;;;;6189069;23;20024;-87
2021/12/15 13:00:45;;;;;;;4.90;1.08;;;14.60;98.30;;;;;;6215373;23;20028;-86
2021/12/15 13:03:33;;;;;;;4.00;0.95;;;14.20;98.30;;;;;;6214588;23;20028;-87
2021/12/15 13:06:15;;;;;;;3.00;1.25;;;13.40;99.90;;;;;;6189426;23;20474;-87
2021/12/15 13:08:47;;;;;;;3.13;1.00;;;12.90;99.90;;;;;;6193006;23;20024;-87
2021/12/15 13:11:34;;;;;;;3.75;1.17;;;12.60;99.90;;;;;;6215972;23;20533;-87
2021/12/15 13:14:03;;;;;;;6.07;1.13;;;12.20;99.90;;;;;;6189226;23;20059;-86
2021/12/15 13:16:55;;;;;;;3.10;1.83;;;12.00;99.90;;;;;;6215748;23;20127;-86
2021/12/15 13:19:36;;;;;;;6.72;1.23;;;11.70;99.90;;;;;;6213776;23;20090;-87
2021/12/15 13:31:08;;;;;;;7.35;1.40;;;10.70;99.90;;;;;;6188138;23;20029;-87
2021/12/15 13:33:38;;;;;;;4.93;1.25;;;10.50;99.90;;;;;;6189034;23;20070;-86
2021/12/15 13:36:21;;;;;;;4.60;1.25;;;10.50;99.90;;;;;;6188094;23;20020;-87
2021/12/15 13:42:11;;;;;;;5.88;1.42;;;10.30;99.90;;;;;;6188508;23;20025;-87
2021/12/15 13:44:49;;;;;;;4.32;1.40;;;10.30;99.90;;;;;;6188056;23;20067;-86
2021/12/15 13:47:25;;;;;;;5.07;1.40;;;10.30;99.90;;;;;;6188477;23;20388;-86
2021/12/15 13:50:29;;;;;;;6.72;1.23;;;10.20;99.90;;;;;;6191026;23;20059;-85
2021/12/15 13:52:59;;;;;;;6.22;1.10;;;9.90;99.90;;;;;;6154995;23;20061;-86
2021/12/15 13:55:38;;;;;;;3.65;1.20;;;9.80;99.90;;;;;;6103505;23;20028;-87
2021/12/15 13:58:30;;;;;;;6.00;1.48;;;9.70;99.90;;;;;;6127686;23;20021;-86
2021/12/15 14:01:03;;;;;;;5.57;1.77;;;9.50;99.90;;;;;;6009373;23;20489;-86
2021/12/15 14:03:35;;;;;;;3.78;0.98;;;9.40;99.90;;;;;;5986030;23;20051;-86
2021/12/15 14:06:03;;;;;;;5.53;1.20;;;9.30;99.90;;;;;;5984483;23;20024;-87
2021/12/15 14:08:47;;;;;;;3.75;0.98;;;9.20;99.90;;;;;;6008383;23;20028;-87
2021/12/15 14:11:32;;;;;;;6.72;1.13;;;9.20;99.90;;;;;;6008133;23;20030;-86
2021/12/15 14:14:06;;;;;;;4.80;1.17;;;9.20;99.90;;;;;;6008160;23;20464;-86
2021/12/15 14:16:53;;;;;;;9.57;2.10;;;9.10;99.90;;;;;;6007362;23;20452;-86
2021/12/15 14:19:32;;;;;;;4.78;1.55;;;9.10;99.90;;;;;;5961026;23;20776;-86
2021/12/15 14:22:04;;;;;;;6.22;1.30;;;9.10;99.90;;;;;;5984366;23;20023;-87
2021/12/15 14:24:34;;;;;;;4.82;1.33;;;9.20;99.90;;;;;;5984032;23;20023;-87
2021/12/15 14:27:04;;;;;;;3.25;1.08;;;9.20;99.90;;;;;;6015523;23;20495;-87
2021/12/15 14:29:34;;;;;;;5.07;1.50;;;9.20;99.90;;;;;;5993938;23;20023;-87
2021/12/15 14:32:03;;;;;;;4.05;1.70;;;9.20;99.90;;;;;;6043792;23;20023;-86
2021/12/15 14:34:42;;;;;;;7.15;2.28;;;9.10;99.90;;;;;;6066802;23;20019;-87
2021/12/15 14:37:17;;;;;;;7.78;1.55;;;9.10;99.90;;;;;;6093848;23;20029;-86
2021/12/15 14:39:51;;;;;;;6.30;1.75;;;9.10;99.90;;;;;;6188757;23;20020;-85
2021/12/15 14:42:21;;;;;;;5.78;1.80;;;9.20;99.90;;;;;;6187890;23;20021;-86